PWSweather.com
Personal Weather Stations
Station Observations
IMAZOWIE6
WarszawaPL

WarszawaPL

Lat: 52.27957, Lon: 21.05489

Elevation: 100

Station Type: WS1080

http://stacjapogody.waw.pl/

High Low Average
Temperature 43.5°F6.4°C 37.8°F3.2°C 40.3°F4.6°C
Dew Point -2.1°F-18.9°C -169.0°F-111.7°C -158.7°F-105.9°C
Winds 4.0 mph 6.4 kmh Calm Calm 1.0 mph N1.6 kmh N
Wind Gusts 8.2 mph13.2 kmh -- 2.0 mph3.2 kmh
Humidity 17% 10% 13%
Pressure 29.32 in992.9 mb 28.94 in980.0 mb -
Precipitation 0.00 in0.0 mm - -
Hour Temp Dew Point Humidity Winds Wind Gusts Pressure Precip Precip Rate Daily Precip Total
12:05 AM 39.2°F4.0°C -2.1°F-18.9°C 17% 1.4 mph N2.3 kmh N 3.4 mph5.5 kmh 28.94 in980.0 mb 0.01 in0.3 mm 0.15 in3.8 mm 0.01 in0.3 mm
12:20 AM 39.2°F4.0°C -4.7°F-20.4°C 15% 0.6 mph N1.0 kmh N 2.8 mph4.5 kmh 28.95 in980.4 mb 0.00 in0.0 mm 0.00 in0.0 mm 0.01 in0.3 mm
12:35 AM 39.0°F3.9°C -6.3°F-21.3°C 14% 0.6 mph N1.0 kmh N 2.8 mph4.5 kmh 28.96 in980.7 mb 0.00 in0.0 mm 0.00 in0.0 mm 0.01 in0.3 mm
12:50 AM 38.8°F3.8°C -7.9°F-22.2°C 13% 0.6 mph N1.0 kmh N 2.8 mph4.5 kmh 28.97 in981.0 mb 0.00 in0.0 mm 0.00 in0.0 mm 0.01 in0.3 mm
01:05 AM 39.2°F4.0°C -11.0°F-23.9°C 11% 0.6 mph N1.0 kmh N 2.8 mph4.5 kmh 28.97 in981.0 mb 0.00 in0.0 mm 0.00 in0.0 mm 0.01 in0.3 mm
01:20 AM 39.4°F4.1°C -12.7°F-24.8°C 10% Calm Calm 1.4 mph2.3 kmh 28.98 in981.4 mb 0.00 in0.0 mm 0.00 in0.0 mm 0.01 in0.3 mm
01:35 AM 39.4°F4.1°C -168.9°F-111.6°C - Calm Calm 2.8 mph4.5 kmh 28.99 in981.7 mb 0.00 in0.0 mm 0.00 in0.0 mm 0.01 in0.3 mm
01:50 AM 39.2°F4.0°C -168.9°F-111.6°C - 0.6 mph N1.0 kmh N 4.8 mph7.7 kmh 28.99 in981.7 mb 0.00 in0.0 mm 0.00 in0.0 mm 0.01 in0.3 mm
02:05 AM 39.2°F4.0°C -168.9°F-111.6°C - 1.4 mph N2.3 kmh N 4.8 mph7.7 kmh 29.00 in982.1 mb 0.00 in0.0 mm 0.00 in0.0 mm 0.01 in0.3 mm
02:20 AM 39.2°F4.0°C -168.9°F-111.6°C - Calm Calm 1.4 mph2.3 kmh 29.00 in982.1 mb 0.00 in0.0 mm 0.00 in0.0 mm 0.01 in0.3 mm
02:35 AM 39.0°F3.9°C -168.9°F-111.6°C - 2.8 mph N4.5 kmh N 6.2 mph10.0 kmh 29.00 in982.1 mb 0.00 in0.0 mm 0.00 in0.0 mm 0.01 in0.3 mm
02:50 AM 38.8°F3.8°C -168.9°F-111.6°C - 1.4 mph N2.3 kmh N 5.4 mph8.7 kmh 29.01 in982.4 mb 0.00 in0.0 mm 0.00 in0.0 mm 0.01 in0.3 mm
03:05 AM 38.8°F3.8°C -168.9°F-111.6°C - Calm Calm 2.0 mph3.2 kmh 29.02 in982.7 mb 0.00 in0.0 mm 0.00 in0.0 mm 0.01 in0.3 mm
03:20 AM 38.8°F3.8°C -168.9°F-111.6°C - 0.6 mph N1.0 kmh N 3.4 mph5.5 kmh 29.02 in982.7 mb 0.00 in0.0 mm 0.00 in0.0 mm 0.01 in0.3 mm
03:35 AM 39.0°F3.9°C -168.9°F-111.6°C - 2.0 mph N3.2 kmh N 5.4 mph8.7 kmh 29.03 in983.1 mb 0.00 in0.0 mm 0.00 in0.0 mm 0.01 in0.3 mm
03:50 AM 38.8°F3.8°C -168.9°F-111.6°C - 1.4 mph N2.3 kmh N 3.4 mph5.5 kmh 29.03 in983.1 mb 0.00 in0.0 mm 0.00 in0.0 mm 0.01 in0.3 mm
04:05 AM 38.8°F3.8°C -168.9°F-111.6°C - Calm Calm 2.8 mph4.5 kmh 29.04 in983.4 mb 0.00 in0.0 mm 0.00 in0.0 mm 0.01 in0.3 mm
04:20 AM 38.8°F3.8°C -168.9°F-111.6°C - 1.4 mph N2.3 kmh N 4.0 mph6.4 kmh 29.05 in983.7 mb 0.00 in0.0 mm 0.00 in0.0 mm 0.01 in0.3 mm
04:35 AM 38.8°F3.8°C -168.9°F-111.6°C - 4.0 mph N6.4 kmh N 8.2 mph13.2 kmh 29.05 in983.7 mb 0.00 in0.0 mm 0.00 in0.0 mm 0.01 in0.3 mm
04:50 AM 38.8°F3.8°C -168.9°F-111.6°C - 0.6 mph N1.0 kmh N 2.0 mph3.2 kmh 29.06 in984.1 mb 0.00 in0.0 mm 0.00 in0.0 mm 0.01 in0.3 mm
05:05 AM 38.7°F3.7°C -168.9°F-111.6°C - 2.0 mph N3.2 kmh N 4.0 mph6.4 kmh 29.07 in984.4 mb 0.00 in0.0 mm 0.00 in0.0 mm 0.01 in0.3 mm
05:20 AM 38.3°F3.5°C -169.0°F-111.7°C - 0.6 mph N1.0 kmh N 3.4 mph5.5 kmh 29.07 in984.4 mb 0.00 in0.0 mm 0.00 in0.0 mm 0.01 in0.3 mm
05:35 AM 38.1°F3.4°C -169.0°F-111.7°C - 2.0 mph N3.2 kmh N 4.8 mph7.7 kmh 29.07 in984.4 mb 0.00 in0.0 mm 0.00 in0.0 mm 0.01 in0.3 mm
05:50 AM 37.9°F3.3°C -169.0°F-111.7°C - 2.0 mph N3.2 kmh N 6.2 mph10.0 kmh 29.08 in984.8 mb 0.00 in0.0 mm 0.00 in0.0 mm 0.01 in0.3 mm
06:05 AM 37.8°F3.2°C -169.0°F-111.7°C - Calm Calm 1.4 mph2.3 kmh 29.08 in984.8 mb 0.00 in0.0 mm 0.00 in0.0 mm 0.01 in0.3 mm
06:20 AM 37.9°F3.3°C -169.0°F-111.7°C - 2.8 mph N4.5 kmh N 6.8 mph10.9 kmh 29.08 in984.8 mb 0.00 in0.0 mm 0.00 in0.0 mm 0.01 in0.3 mm
06:35 AM 37.8°F3.2°C -169.0°F-111.7°C - 1.4 mph N2.3 kmh N 4.0 mph6.4 kmh 29.08 in984.8 mb 0.00 in0.0 mm 0.00 in0.0 mm 0.01 in0.3 mm
06:50 AM 38.1°F3.4°C -169.0°F-111.7°C - Calm Calm 2.8 mph4.5 kmh 29.09 in985.1 mb 0.00 in0.0 mm 0.00 in0.0 mm 0.01 in0.3 mm
07:05 AM 38.3°F3.5°C -169.0°F-111.7°C - 0.6 mph N1.0 kmh N 2.8 mph4.5 kmh 29.09 in985.1 mb 0.00 in0.0 mm 0.00 in0.0 mm 0.01 in0.3 mm
07:20 AM 38.5°F3.6°C -169.0°F-111.7°C - 2.0 mph N3.2 kmh N 8.2 mph13.2 kmh 29.09 in985.1 mb 0.00 in0.0 mm 0.00 in0.0 mm 0.01 in0.3 mm
07:35 AM 38.8°F3.8°C -168.9°F-111.6°C - 0.6 mph N1.0 kmh N 3.4 mph5.5 kmh 29.10 in985.4 mb 0.00 in0.0 mm 0.00 in0.0 mm 0.01 in0.3 mm
07:50 AM 38.8°F3.8°C -168.9°F-111.6°C - 1.4 mph N2.3 kmh N 4.0 mph6.4 kmh 29.11 in985.8 mb 0.00 in0.0 mm 0.00 in0.0 mm 0.01 in0.3 mm
08:05 AM 38.8°F3.8°C -168.9°F-111.6°C - 1.4 mph N2.3 kmh N 4.8 mph7.7 kmh 29.11 in985.8 mb 0.00 in0.0 mm 0.00 in0.0 mm 0.01 in0.3 mm
08:20 AM 38.8°F3.8°C -168.9°F-111.6°C - Calm Calm 2.0 mph3.2 kmh 29.12 in986.1 mb 0.04 in1.0 mm 0.15 in3.8 mm 0.05 in1.3 mm
08:35 AM 39.2°F4.0°C -168.9°F-111.6°C - 0.6 mph N1.0 kmh N 2.8 mph4.5 kmh 29.13 in986.5 mb 0.04 in1.0 mm 0.00 in0.0 mm 0.05 in1.3 mm
08:50 AM 39.2°F4.0°C -168.9°F-111.6°C - 0.6 mph N1.0 kmh N 5.4 mph8.7 kmh 29.13 in986.5 mb 0.04 in1.0 mm 0.00 in0.0 mm 0.05 in1.3 mm
09:05 AM 39.4°F4.1°C -168.9°F-111.6°C - Calm Calm 1.4 mph2.3 kmh 29.14 in986.8 mb 0.04 in1.0 mm 0.00 in0.0 mm 0.05 in1.3 mm
09:20 AM 39.6°F4.2°C -168.8°F-111.6°C - Calm Calm 3.4 mph5.5 kmh 29.15 in987.1 mb 0.00 in0.0 mm 0.00 in0.0 mm 0.05 in1.3 mm
09:35 AM 39.7°F4.3°C -168.8°F-111.6°C - 0.6 mph N1.0 kmh N 2.8 mph4.5 kmh 29.16 in987.5 mb 0.00 in0.0 mm 0.00 in0.0 mm 0.05 in1.3 mm
09:50 AM 39.9°F4.4°C -168.8°F-111.6°C - 0.6 mph N1.0 kmh N 2.8 mph4.5 kmh 29.16 in987.5 mb 0.00 in0.0 mm 0.00 in0.0 mm 0.05 in1.3 mm
10:05 AM 40.1°F4.5°C -168.8°F-111.6°C - 0.6 mph N1.0 kmh N 3.4 mph5.5 kmh 29.17 in987.8 mb 0.01 in0.3 mm 0.02 in0.5 mm 0.06 in1.5 mm
10:20 AM 40.5°F4.7°C -168.8°F-111.6°C - Calm Calm 2.0 mph3.2 kmh 29.18 in988.1 mb 0.00 in0.0 mm 0.00 in0.0 mm 0.06 in1.5 mm
10:35 AM 40.5°F4.7°C -168.8°F-111.6°C - 0.6 mph N1.0 kmh N 2.8 mph4.5 kmh 29.18 in988.1 mb 0.00 in0.0 mm 0.00 in0.0 mm 0.06 in1.5 mm
10:50 AM 40.6°F4.8°C -168.7°F-111.5°C - 0.6 mph N1.0 kmh N 2.8 mph4.5 kmh 29.20 in988.8 mb 0.00 in0.0 mm 0.00 in0.0 mm 0.06 in1.5 mm
11:05 AM 40.6°F4.8°C -168.7°F-111.5°C - 1.4 mph N2.3 kmh N 4.8 mph7.7 kmh 29.20 in988.8 mb 0.00 in0.0 mm 0.00 in0.0 mm 0.06 in1.5 mm
11:20 AM 40.6°F4.8°C -168.7°F-111.5°C - Calm Calm 2.0 mph3.2 kmh 29.21 in989.2 mb 0.00 in0.0 mm 0.00 in0.0 mm 0.06 in1.5 mm
11:35 AM 41.0°F5.0°C -168.7°F-111.5°C - 0.6 mph N1.0 kmh N 2.8 mph4.5 kmh 29.21 in989.2 mb 0.00 in0.0 mm 0.00 in0.0 mm 0.06 in1.5 mm
11:50 AM 41.0°F5.0°C -168.7°F-111.5°C - Calm Calm 1.4 mph2.3 kmh 29.22 in989.5 mb 0.00 in0.0 mm 0.00 in0.0 mm 0.06 in1.5 mm
12:05 PM 41.2°F5.1°C -168.7°F-111.5°C - 0.6 mph N1.0 kmh N 2.8 mph4.5 kmh 29.23 in989.8 mb 0.00 in0.0 mm 0.00 in0.0 mm 0.06 in1.5 mm
12:20 PM 41.4°F5.2°C -168.7°F-111.5°C - Calm Calm 2.8 mph4.5 kmh 29.24 in990.2 mb 0.00 in0.0 mm 0.00 in0.0 mm 0.06 in1.5 mm
12:35 PM 41.5°F5.3°C -168.6°F-111.4°C - Calm Calm 1.4 mph2.3 kmh 29.24 in990.2 mb 0.00 in0.0 mm 0.00 in0.0 mm 0.06 in1.5 mm
12:50 PM 41.7°F5.4°C -168.6°F-111.4°C - 0.6 mph N1.0 kmh N 2.0 mph3.2 kmh 29.24 in990.2 mb 0.00 in0.0 mm 0.00 in0.0 mm 0.06 in1.5 mm
01:05 PM 41.9°F5.5°C -168.6°F-111.4°C - 0.6 mph N1.0 kmh N 3.4 mph5.5 kmh 29.25 in990.5 mb 0.00 in0.0 mm 0.00 in0.0 mm 0.06 in1.5 mm
01:20 PM 42.1°F5.6°C -168.6°F-111.4°C - 0.6 mph N1.0 kmh N 2.0 mph3.2 kmh 29.25 in990.5 mb 0.00 in0.0 mm 0.00 in0.0 mm 0.06 in1.5 mm
01:35 PM 42.1°F5.6°C -168.6°F-111.4°C - 2.8 mph N4.5 kmh N 6.8 mph10.9 kmh 29.25 in990.5 mb 0.00 in0.0 mm 0.00 in0.0 mm 0.06 in1.5 mm
01:50 PM 42.3°F5.7°C -168.6°F-111.4°C - Calm Calm 2.8 mph4.5 kmh 29.26 in990.9 mb 0.00 in0.0 mm 0.00 in0.0 mm 0.06 in1.5 mm
02:05 PM 42.3°F5.7°C -168.6°F-111.4°C - 0.6 mph N1.0 kmh N 2.8 mph4.5 kmh 29.27 in991.2 mb 0.00 in0.0 mm 0.00 in0.0 mm 0.06 in1.5 mm
02:20 PM 42.6°F5.9°C -168.5°F-111.4°C - 0.6 mph N1.0 kmh N 1.4 mph2.3 kmh 29.27 in991.2 mb 0.00 in0.0 mm 0.00 in0.0 mm 0.06 in1.5 mm
02:35 PM 42.8°F6.0°C -168.5°F-111.4°C - Calm Calm 2.0 mph3.2 kmh 29.27 in991.2 mb 0.00 in0.0 mm 0.00 in0.0 mm 0.06 in1.5 mm
02:50 PM 43.5°F6.4°C -168.4°F-111.3°C - Calm Calm 1.4 mph2.3 kmh 29.28 in991.5 mb 0.00 in0.0 mm 0.00 in0.0 mm 0.06 in1.5 mm
03:05 PM 43.0°F6.1°C -168.5°F-111.4°C - Calm Calm 1.4 mph2.3 kmh 29.28 in991.5 mb 0.00 in0.0 mm 0.00 in0.0 mm 0.06 in1.5 mm
03:20 PM 42.6°F5.9°C -168.5°F-111.4°C - Calm Calm 1.4 mph2.3 kmh 29.28 in991.5 mb 0.00 in0.0 mm 0.00 in0.0 mm 0.06 in1.5 mm
03:35 PM 42.6°F5.9°C -168.5°F-111.4°C - Calm Calm 1.4 mph2.3 kmh 29.29 in991.9 mb 0.00 in0.0 mm 0.00 in0.0 mm 0.06 in1.5 mm
03:50 PM 42.4°F5.8°C -168.6°F-111.4°C - Calm Calm 1.4 mph2.3 kmh 29.29 in991.9 mb 0.00 in0.0 mm 0.00 in0.0 mm 0.06 in1.5 mm
04:05 PM 42.3°F5.7°C -168.6°F-111.4°C - Calm Calm 1.4 mph2.3 kmh 29.30 in992.2 mb 0.00 in0.0 mm 0.00 in0.0 mm 0.06 in1.5 mm
04:20 PM 42.3°F5.7°C -168.6°F-111.4°C - Calm Calm 0.6 mph1.0 kmh 29.30 in992.2 mb 0.00 in0.0 mm 0.00 in0.0 mm 0.06 in1.5 mm
04:35 PM 42.3°F5.7°C -168.6°F-111.4°C - Calm Calm 0.6 mph1.0 kmh 29.30 in992.2 mb 0.00 in0.0 mm 0.00 in0.0 mm 0.06 in1.5 mm
04:50 PM 42.3°F5.7°C -168.6°F-111.4°C - Calm Calm -- 29.31 in992.6 mb 0.00 in0.0 mm 0.00 in0.0 mm 0.06 in1.5 mm
05:05 PM 42.1°F5.6°C -168.6°F-111.4°C - Calm Calm -- 29.30 in992.2 mb 0.00 in0.0 mm 0.00 in0.0 mm 0.06 in1.5 mm
05:20 PM 42.1°F5.6°C -168.6°F-111.4°C - Calm Calm 0.6 mph1.0 kmh 29.31 in992.6 mb 0.00 in0.0 mm 0.00 in0.0 mm 0.06 in1.5 mm
05:35 PM 42.1°F5.6°C -168.6°F-111.4°C - Calm Calm 0.6 mph1.0 kmh 29.31 in992.6 mb 0.00 in0.0 mm 0.00 in0.0 mm 0.06 in1.5 mm
05:50 PM 41.9°F5.5°C -168.6°F-111.4°C - Calm Calm 0.6 mph1.0 kmh 29.31 in992.6 mb 0.00 in0.0 mm 0.00 in0.0 mm 0.06 in1.5 mm
06:05 PM 41.9°F5.5°C -168.6°F-111.4°C - Calm Calm -- 29.31 in992.6 mb 0.00 in0.0 mm 0.00 in0.0 mm 0.06 in1.5 mm
06:20 PM 41.7°F5.4°C -168.6°F-111.4°C - Calm Calm -- 29.31 in992.6 mb 0.00 in0.0 mm 0.00 in0.0 mm 0.06 in1.5 mm
06:35 PM 41.5°F5.3°C -168.6°F-111.4°C - Calm Calm -- 29.31 in992.6 mb 0.00 in0.0 mm 0.00 in0.0 mm 0.06 in1.5 mm
06:50 PM 41.5°F5.3°C -168.6°F-111.4°C - Calm Calm -- 29.31 in992.6 mb 0.00 in0.0 mm 0.00 in0.0 mm 0.06 in1.5 mm
07:05 PM 41.5°F5.3°C -168.6°F-111.4°C - Calm Calm -- 29.32 in992.9 mb 0.00 in0.0 mm 0.00 in0.0 mm 0.06 in1.5 mm
07:20 PM 41.5°F5.3°C -168.6°F-111.4°C - Calm Calm -- 29.32 in992.9 mb 0.00 in0.0 mm 0.00 in0.0 mm 0.06 in1.5 mm
07:35 PM 41.5°F5.3°C -168.6°F-111.4°C - Calm Calm -- 29.31 in992.6 mb 0.00 in0.0 mm 0.00 in0.0 mm 0.06 in1.5 mm
07:50 PM 41.4°F5.2°C -168.7°F-111.5°C - Calm Calm -- 29.31 in992.6 mb 0.00 in0.0 mm 0.00 in0.0 mm 0.06 in1.5 mm
08:05 PM 41.0°F5.0°C -168.7°F-111.5°C - Calm Calm 0.6 mph1.0 kmh 29.30 in992.2 mb 0.00 in0.0 mm 0.00 in0.0 mm 0.06 in1.5 mm
08:20 PM 40.5°F4.7°C -168.8°F-111.6°C - Calm Calm -- 29.31 in992.6 mb 0.00 in0.0 mm 0.00 in0.0 mm 0.06 in1.5 mm
08:35 PM 40.5°F4.7°C -168.8°F-111.6°C - Calm Calm -- 29.30 in992.2 mb 0.00 in0.0 mm 0.00 in0.0 mm 0.06 in1.5 mm
08:50 PM 40.3°F4.6°C -168.8°F-111.6°C - Calm Calm 0.6 mph1.0 kmh 29.29 in991.9 mb 0.00 in0.0 mm 0.00 in0.0 mm 0.06 in1.5 mm
09:05 PM 40.1°F4.5°C -168.8°F-111.6°C - Calm Calm 0.6 mph1.0 kmh 29.29 in991.9 mb 0.00 in0.0 mm 0.00 in0.0 mm 0.06 in1.5 mm
09:20 PM 40.3°F4.6°C -168.8°F-111.6°C - Calm Calm 2.0 mph3.2 kmh 29.28 in991.5 mb 0.00 in0.0 mm 0.00 in0.0 mm 0.06 in1.5 mm
09:35 PM 40.3°F4.6°C -168.8°F-111.6°C - Calm Calm 0.6 mph1.0 kmh 29.29 in991.9 mb 0.00 in0.0 mm 0.00 in0.0 mm 0.06 in1.5 mm
09:50 PM 40.3°F4.6°C -168.8°F-111.6°C - 0.6 mph N1.0 kmh N 2.0 mph3.2 kmh 29.28 in991.5 mb 0.00 in0.0 mm 0.00 in0.0 mm 0.06 in1.5 mm
10:05 PM 40.1°F4.5°C -168.8°F-111.6°C - Calm Calm 0.6 mph1.0 kmh 29.29 in991.9 mb 0.00 in0.0 mm 0.00 in0.0 mm 0.06 in1.5 mm
10:20 PM 40.3°F4.6°C -168.8°F-111.6°C - Calm Calm 0.6 mph1.0 kmh 29.28 in991.5 mb 0.00 in0.0 mm 0.00 in0.0 mm 0.06 in1.5 mm
10:35 PM 39.9°F4.4°C -168.8°F-111.6°C - Calm Calm 0.6 mph1.0 kmh 29.28 in991.5 mb 0.00 in0.0 mm 0.00 in0.0 mm 0.06 in1.5 mm
10:50 PM 39.9°F4.4°C -168.8°F-111.6°C - Calm Calm 1.4 mph2.3 kmh 29.28 in991.5 mb 0.00 in0.0 mm 0.00 in0.0 mm 0.06 in1.5 mm
11:05 PM 39.6°F4.2°C -168.8°F-111.6°C - Calm Calm 0.6 mph1.0 kmh 29.28 in991.5 mb 0.00 in0.0 mm 0.00 in0.0 mm 0.06 in1.5 mm
11:20 PM 39.4°F4.1°C -168.9°F-111.6°C - Calm Calm 0.6 mph1.0 kmh 29.27 in991.2 mb 0.00 in0.0 mm 0.00 in0.0 mm 0.06 in1.5 mm
11:35 PM 39.4°F4.1°C -168.9°F-111.6°C - Calm Calm 2.0 mph3.2 kmh 29.26 in990.9 mb 0.00 in0.0 mm 0.00 in0.0 mm 0.06 in1.5 mm
11:50 PM 39.2°F4.0°C -168.9°F-111.6°C - Calm Calm 1.4 mph2.3 kmh 29.26 in990.9 mb 0.00 in0.0 mm 0.00 in0.0 mm 0.06 in1.5 mm